sensor_id;sensor_type;location;lat;lon;timestamp;P1;durP1;ratioP1;P2;durP2;ratioP2
80297;SDS011;69599;52.622;9.230;2024-02-14T00:02:13;3.67;;;1.33;;
80297;SDS011;69599;52.622;9.230;2024-02-14T00:04:38;2.25;;;1.40;;
80297;SDS011;69599;52.622;9.230;2024-02-14T00:07:04;4.43;;;1.55;;
80297;SDS011;69599;52.622;9.230;2024-02-14T00:09:29;6.72;;;1.65;;
80297;SDS011;69599;52.622;9.230;2024-02-14T00:11:55;5.00;;;1.67;;
80297;SDS011;69599;52.622;9.230;2024-02-14T00:14:20;3.45;;;1.35;;
80297;SDS011;69599;52.622;9.230;2024-02-14T00:16:46;2.13;;;1.27;;
80297;SDS011;69599;52.622;9.230;2024-02-14T00:19:11;3.90;;;1.75;;
80297;SDS011;69599;52.622;9.230;2024-02-14T00:21:37;2.80;;;1.35;;
80297;SDS011;69599;52.622;9.230;2024-02-14T00:24:03;3.58;;;1.27;;
80297;SDS011;69599;52.622;9.230;2024-02-14T00:26:29;5.05;;;2.30;;
80297;SDS011;69599;52.622;9.230;2024-02-14T00:28:55;2.72;;;1.50;;
80297;SDS011;69599;52.622;9.230;2024-02-14T00:31:21;2.08;;;1.30;;
80297;SDS011;69599;52.622;9.230;2024-02-14T00:33:46;3.35;;;1.73;;
80297;SDS011;69599;52.622;9.230;2024-02-14T00:36:11;3.22;;;1.50;;
80297;SDS011;69599;52.622;9.230;2024-02-14T00:38:37;3.33;;;1.80;;
80297;SDS011;69599;52.622;9.230;2024-02-14T00:41:02;4.28;;;1.70;;
80297;SDS011;69599;52.622;9.230;2024-02-14T00:43:28;2.75;;;1.40;;
80297;SDS011;69599;52.622;9.230;2024-02-14T00:45:54;4.32;;;1.60;;
80297;SDS011;69599;52.622;9.230;2024-02-14T00:48:21;2.25;;;1.40;;
80297;SDS011;69599;52.622;9.230;2024-02-14T00:50:47;4.03;;;2.28;;
80297;SDS011;69599;52.622;9.230;2024-02-14T00:53:12;2.72;;;1.40;;
80297;SDS011;69599;52.622;9.230;2024-02-14T00:55:38;4.22;;;1.65;;
80297;SDS011;69599;52.622;9.230;2024-02-14T00:58:04;7.40;;;1.73;;
80297;SDS011;69599;52.622;9.230;2024-02-14T01:00:30;3.80;;;2.05;;
80297;SDS011;69599;52.622;9.230;2024-02-14T01:02:57;2.92;;;1.52;;
80297;SDS011;69599;52.622;9.230;2024-02-14T01:05:23;3.00;;;1.75;;
80297;SDS011;69599;52.622;9.230;2024-02-14T01:07:48;3.45;;;1.77;;
80297;SDS011;69599;52.622;9.230;2024-02-14T01:10:14;2.60;;;1.50;;
80297;SDS011;69599;52.622;9.230;2024-02-14T01:12:39;3.50;;;1.90;;
80297;SDS011;69599;52.622;9.230;2024-02-14T01:15:05;2.60;;;1.88;;
80297;SDS011;69599;52.622;9.230;2024-02-14T01:17:31;3.95;;;1.80;;
80297;SDS011;69599;52.622;9.230;2024-02-14T01:19:56;6.18;;;2.00;;
80297;SDS011;69599;52.622;9.230;2024-02-14T01:22:23;4.82;;;1.90;;
80297;SDS011;69599;52.622;9.230;2024-02-14T01:24:49;4.22;;;1.92;;
80297;SDS011;69599;52.622;9.230;2024-02-14T01:27:14;3.45;;;2.00;;
80297;SDS011;69599;52.622;9.230;2024-02-14T01:29:41;4.07;;;1.42;;
80297;SDS011;69599;52.622;9.230;2024-02-14T01:32:07;3.65;;;1.58;;
80297;SDS011;69599;52.622;9.230;2024-02-14T01:34:34;1.65;;;1.08;;
80297;SDS011;69599;52.622;9.230;2024-02-14T01:37:00;4.15;;;2.17;;
80297;SDS011;69599;52.622;9.230;2024-02-14T01:39:25;3.05;;;1.70;;
80297;SDS011;69599;52.622;9.230;2024-02-14T01:41:51;2.95;;;1.55;;
80297;SDS011;69599;52.622;9.230;2024-02-14T01:44:16;4.45;;;1.60;;
80297;SDS011;69599;52.622;9.230;2024-02-14T01:46:42;4.13;;;1.70;;
80297;SDS011;69599;52.622;9.230;2024-02-14T01:49:09;3.17;;;1.80;;
80297;SDS011;69599;52.622;9.230;2024-02-14T01:51:35;4.25;;;1.60;;
80297;SDS011;69599;52.622;9.230;2024-02-14T01:54:01;4.60;;;2.20;;
80297;SDS011;69599;52.622;9.230;2024-02-14T01:56:28;3.47;;;1.92;;
80297;SDS011;69599;52.622;9.230;2024-02-14T01:58:54;6.10;;;1.80;;
80297;SDS011;69599;52.622;9.230;2024-02-14T02:01:21;2.78;;;1.83;;
80297;SDS011;69599;52.622;9.230;2024-02-14T02:03:48;3.53;;;1.63;;
80297;SDS011;69599;52.622;9.230;2024-02-14T02:06:14;5.05;;;2.15;;
80297;SDS011;69599;52.622;9.230;2024-02-14T02:08:42;5.13;;;1.95;;
80297;SDS011;69599;52.622;9.230;2024-02-14T02:11:09;3.60;;;2.55;;
80297;SDS011;69599;52.622;9.230;2024-02-14T02:13:34;3.53;;;2.38;;
80297;SDS011;69599;52.622;9.230;2024-02-14T02:16:00;3.10;;;1.98;;
80297;SDS011;69599;52.622;9.230;2024-02-14T02:18:29;4.97;;;2.08;;
80297;SDS011;69599;52.622;9.230;2024-02-14T02:20:55;5.00;;;2.40;;
80297;SDS011;69599;52.622;9.230;2024-02-14T02:23:21;4.18;;;3.13;;
80297;SDS011;69599;52.622;9.230;2024-02-14T02:25:46;3.58;;;2.35;;
80297;SDS011;69599;52.622;9.230;2024-02-14T02:28:12;5.32;;;2.60;;
80297;SDS011;69599;52.622;9.230;2024-02-14T02:30:38;4.47;;;2.45;;
80297;SDS011;69599;52.622;9.230;2024-02-14T02:33:04;4.15;;;2.67;;
80297;SDS011;69599;52.622;9.230;2024-02-14T02:35:30;5.85;;;2.63;;
80297;SDS011;69599;52.622;9.230;2024-02-14T02:37:55;6.38;;;4.40;;
80297;SDS011;69599;52.622;9.230;2024-02-14T02:40:21;4.53;;;2.60;;
80297;SDS011;69599;52.622;9.230;2024-02-14T02:42:47;5.57;;;2.75;;
80297;SDS011;69599;52.622;9.230;2024-02-14T02:45:16;3.80;;;2.40;;
80297;SDS011;69599;52.622;9.230;2024-02-14T02:47:42;6.82;;;3.03;;
80297;SDS011;69599;52.622;9.230;2024-02-14T02:50:07;4.40;;;2.80;;
80297;SDS011;69599;52.622;9.230;2024-02-14T02:52:33;3.55;;;2.10;;
80297;SDS011;69599;52.622;9.230;2024-02-14T02:54:59;5.47;;;2.63;;
80297;SDS011;69599;52.622;9.230;2024-02-14T02:57:30;3.70;;;2.22;;
80297;SDS011;69599;52.622;9.230;2024-02-14T02:59:57;5.38;;;2.42;;
80297;SDS011;69599;52.622;9.230;2024-02-14T03:02:23;4.95;;;2.70;;
80297;SDS011;69599;52.622;9.230;2024-02-14T03:04:48;4.35;;;2.13;;
80297;SDS011;69599;52.622;9.230;2024-02-14T03:07:15;5.72;;;2.90;;
80297;SDS011;69599;52.622;9.230;2024-02-14T03:09:41;5.38;;;2.60;;
80297;SDS011;69599;52.622;9.230;2024-02-14T03:12:06;5.20;;;2.70;;
80297;SDS011;69599;52.622;9.230;2024-02-14T03:14:33;4.50;;;2.60;;
80297;SDS011;69599;52.622;9.230;2024-02-14T03:16:59;4.70;;;2.92;;
80297;SDS011;69599;52.622;9.230;2024-02-14T03:19:25;3.47;;;2.00;;
80297;SDS011;69599;52.622;9.230;2024-02-14T03:21:52;6.20;;;2.53;;
80297;SDS011;69599;52.622;9.230;2024-02-14T03:24:18;5.45;;;2.83;;
80297;SDS011;69599;52.622;9.230;2024-02-14T03:26:43;5.88;;;3.08;;
80297;SDS011;69599;52.622;9.230;2024-02-14T03:29:09;6.65;;;3.45;;
80297;SDS011;69599;52.622;9.230;2024-02-14T03:31:34;8.80;;;2.05;;
80297;SDS011;69599;52.622;9.230;2024-02-14T03:34:00;5.60;;;3.63;;
80297;SDS011;69599;52.622;9.230;2024-02-14T03:36:25;5.00;;;2.78;;
80297;SDS011;69599;52.622;9.230;2024-02-14T03:38:53;7.10;;;2.63;;
80297;SDS011;69599;52.622;9.230;2024-02-14T03:41:19;5.97;;;2.63;;
80297;SDS011;69599;52.622;9.230;2024-02-14T03:43:44;6.07;;;3.00;;
80297;SDS011;69599;52.622;9.230;2024-02-14T03:46:09;5.05;;;3.30;;
80297;SDS011;69599;52.622;9.230;2024-02-14T03:48:37;3.95;;;2.35;;
80297;SDS011;69599;52.622;9.230;2024-02-14T03:51:03;4.68;;;2.80;;
80297;SDS011;69599;52.622;9.230;2024-02-14T03:53:28;6.65;;;3.10;;
80297;SDS011;69599;52.622;9.230;2024-02-14T03:55:54;4.63;;;2.45;;
80297;SDS011;69599;52.622;9.230;2024-02-14T03:58:19;7.43;;;3.42;;
80297;SDS011;69599;52.622;9.230;2024-02-14T04:00:51;6.35;;;3.28;;
80297;SDS011;69599;52.622;9.230;2024-02-14T04:03:17;5.63;;;2.75;;
80297;SDS011;69599;52.622;9.230;2024-02-14T04:05:43;5.85;;;3.20;;
80297;SDS011;69599;52.622;9.230;2024-02-14T04:08:09;6.97;;;3.03;;
80297;SDS011;69599;52.622;9.230;2024-02-14T04:10:35;8.52;;;3.20;;
80297;SDS011;69599;52.622;9.230;2024-02-14T04:13:02;7.32;;;4.05;;
80297;SDS011;69599;52.622;9.230;2024-02-14T04:15:29;7.10;;;2.97;;
80297;SDS011;69599;52.622;9.230;2024-02-14T04:17:54;6.20;;;3.03;;
80297;SDS011;69599;52.622;9.230;2024-02-14T04:20:19;5.78;;;3.28;;
80297;SDS011;69599;52.622;9.230;2024-02-14T04:22:45;6.97;;;3.83;;
80297;SDS011;69599;52.622;9.230;2024-02-14T04:25:10;5.97;;;2.90;;
80297;SDS011;69599;52.622;9.230;2024-02-14T04:27:36;10.15;;;3.22;;
80297;SDS011;69599;52.622;9.230;2024-02-14T04:30:03;7.20;;;3.70;;
80297;SDS011;69599;52.622;9.230;2024-02-14T04:32:30;7.18;;;3.55;;
80297;SDS011;69599;52.622;9.230;2024-02-14T04:34:56;8.85;;;2.70;;
80297;SDS011;69599;52.622;9.230;2024-02-14T04:37:22;8.35;;;3.72;;
80297;SDS011;69599;52.622;9.230;2024-02-14T04:39:48;6.43;;;3.45;;
80297;SDS011;69599;52.622;9.230;2024-02-14T04:42:13;6.10;;;3.17;;
80297;SDS011;69599;52.622;9.230;2024-02-14T04:44:39;7.20;;;3.28;;
80297;SDS011;69599;52.622;9.230;2024-02-14T04:47:04;6.65;;;3.03;;
80297;SDS011;69599;52.622;9.230;2024-02-14T04:49:30;6.20;;;3.35;;
80297;SDS011;69599;52.622;9.230;2024-02-14T04:51:55;6.20;;;3.60;;
80297;SDS011;69599;52.622;9.230;2024-02-14T04:54:21;7.50;;;3.55;;
80297;SDS011;69599;52.622;9.230;2024-02-14T04:56:47;7.60;;;3.53;;
80297;SDS011;69599;52.622;9.230;2024-02-14T04:59:12;5.10;;;3.35;;
80297;SDS011;69599;52.622;9.230;2024-02-14T05:01:38;8.82;;;3.42;;
80297;SDS011;69599;52.622;9.230;2024-02-14T05:04:05;9.60;;;4.03;;
80297;SDS011;69599;52.622;9.230;2024-02-14T05:06:33;9.73;;;3.38;;
80297;SDS011;69599;52.622;9.230;2024-02-14T05:08:58;7.20;;;3.83;;
80297;SDS011;69599;52.622;9.230;2024-02-14T05:11:24;6.82;;;3.30;;
80297;SDS011;69599;52.622;9.230;2024-02-14T05:13:49;7.20;;;3.22;;
80297;SDS011;69599;52.622;9.230;2024-02-14T05:16:19;8.30;;;4.00;;
80297;SDS011;69599;52.622;9.230;2024-02-14T05:18:44;10.02;;;4.00;;
80297;SDS011;69599;52.622;9.230;2024-02-14T05:21:10;13.50;;;3.63;;
80297;SDS011;69599;52.622;9.230;2024-02-14T05:23:35;9.80;;;4.03;;
80297;SDS011;69599;52.622;9.230;2024-02-14T05:26:02;7.07;;;3.95;;
80297;SDS011;69599;52.622;9.230;2024-02-14T05:28:28;8.05;;;4.40;;
80297;SDS011;69599;52.622;9.230;2024-02-14T05:30:54;7.32;;;3.90;;
80297;SDS011;69599;52.622;9.230;2024-02-14T05:33:19;7.57;;;3.92;;
80297;SDS011;69599;52.622;9.230;2024-02-14T05:35:47;6.75;;;4.00;;
80297;SDS011;69599;52.622;9.230;2024-02-14T05:38:13;9.95;;;4.47;;
80297;SDS011;69599;52.622;9.230;2024-02-14T05:40:39;7.68;;;4.20;;
80297;SDS011;69599;52.622;9.230;2024-02-14T05:43:05;6.75;;;3.75;;
80297;SDS011;69599;52.622;9.230;2024-02-14T05:45:32;9.95;;;5.75;;
80297;SDS011;69599;52.622;9.230;2024-02-14T05:47:58;6.95;;;3.92;;
80297;SDS011;69599;52.622;9.230;2024-02-14T05:50:23;9.45;;;4.35;;
80297;SDS011;69599;52.622;9.230;2024-02-14T05:52:49;7.25;;;3.40;;
80297;SDS011;69599;52.622;9.230;2024-02-14T05:55:14;7.70;;;4.90;;
80297;SDS011;69599;52.622;9.230;2024-02-14T05:57:40;6.40;;;4.10;;
80297;SDS011;69599;52.622;9.230;2024-02-14T06:00:05;8.20;;;4.45;;
80297;SDS011;69599;52.622;9.230;2024-02-14T06:05:00;10.63;;;4.72;;
80297;SDS011;69599;52.622;9.230;2024-02-14T06:07:25;9.68;;;5.00;;
80297;SDS011;69599;52.622;9.230;2024-02-14T06:09:53;9.00;;;5.22;;
80297;SDS011;69599;52.622;9.230;2024-02-14T06:12:18;11.00;;;5.18;;
80297;SDS011;69599;52.622;9.230;2024-02-14T06:14:44;9.25;;;4.43;;
80297;SDS011;69599;52.622;9.230;2024-02-14T06:17:09;10.45;;;5.07;;
80297;SDS011;69599;52.622;9.230;2024-02-14T06:19:35;7.65;;;5.10;;
80297;SDS011;69599;52.622;9.230;2024-02-14T06:22:01;10.85;;;5.57;;
80297;SDS011;69599;52.622;9.230;2024-02-14T06:24:26;8.77;;;5.00;;
80297;SDS011;69599;52.622;9.230;2024-02-14T06:26:52;11.77;;;5.85;;
80297;SDS011;69599;52.622;9.230;2024-02-14T06:29:17;11.27;;;5.18;;
80297;SDS011;69599;52.622;9.230;2024-02-14T06:31:43;8.90;;;5.45;;
80297;SDS011;69599;52.622;9.230;2024-02-14T06:34:08;12.02;;;6.22;;
80297;SDS011;69599;52.622;9.230;2024-02-14T06:36:33;9.05;;;5.13;;
80297;SDS011;69599;52.622;9.230;2024-02-14T06:38:59;9.25;;;5.30;;
80297;SDS011;69599;52.622;9.230;2024-02-14T06:41:24;9.95;;;5.75;;
80297;SDS011;69599;52.622;9.230;2024-02-14T06:43:50;10.75;;;5.70;;
80297;SDS011;69599;52.622;9.230;2024-02-14T06:46:15;9.43;;;4.95;;
80297;SDS011;69599;52.622;9.230;2024-02-14T06:48:41;11.68;;;5.45;;
80297;SDS011;69599;52.622;9.230;2024-02-14T06:51:07;9.98;;;5.80;;
80297;SDS011;69599;52.622;9.230;2024-02-14T06:53:33;10.45;;;5.25;;
80297;SDS011;69599;52.622;9.230;2024-02-14T06:55:58;10.45;;;6.03;;
80297;SDS011;69599;52.622;9.230;2024-02-14T06:58:24;10.23;;;5.40;;
80297;SDS011;69599;52.622;9.230;2024-02-14T07:00:49;10.23;;;5.25;;
80297;SDS011;69599;52.622;9.230;2024-02-14T07:03:15;10.07;;;5.63;;
80297;SDS011;69599;52.622;9.230;2024-02-14T07:05:40;9.55;;;6.63;;
80297;SDS011;69599;52.622;9.230;2024-02-14T07:08:06;10.60;;;5.63;;
80297;SDS011;69599;52.622;9.230;2024-02-14T07:10:32;9.73;;;5.78;;
80297;SDS011;69599;52.622;9.230;2024-02-14T07:12:58;9.10;;;5.57;;
80297;SDS011;69599;52.622;9.230;2024-02-14T07:15:23;10.52;;;5.90;;
80297;SDS011;69599;52.622;9.230;2024-02-14T07:17:53;9.40;;;4.72;;
80297;SDS011;69599;52.622;9.230;2024-02-14T07:20:18;8.65;;;5.38;;
80297;SDS011;69599;52.622;9.230;2024-02-14T07:22:45;9.90;;;5.50;;
80297;SDS011;69599;52.622;9.230;2024-02-14T07:25:12;11.02;;;5.78;;
80297;SDS011;69599;52.622;9.230;2024-02-14T07:27:38;11.23;;;6.05;;
80297;SDS011;69599;52.622;9.230;2024-02-14T07:30:04;8.63;;;5.28;;
80297;SDS011;69599;52.622;9.230;2024-02-14T07:32:30;9.25;;;5.05;;
80297;SDS011;69599;52.622;9.230;2024-02-14T07:34:56;9.05;;;5.63;;
80297;SDS011;69599;52.622;9.230;2024-02-14T07:37:21;11.27;;;5.88;;
80297;SDS011;69599;52.622;9.230;2024-02-14T07:39:47;10.10;;;5.50;;
80297;SDS011;69599;52.622;9.230;2024-02-14T07:42:13;9.10;;;5.68;;
80297;SDS011;69599;52.622;9.230;2024-02-14T07:44:38;9.45;;;5.45;;
80297;SDS011;69599;52.622;9.230;2024-02-14T07:47:04;8.60;;;5.47;;
80297;SDS011;69599;52.622;9.230;2024-02-14T07:49:30;10.48;;;5.55;;
80297;SDS011;69599;52.622;9.230;2024-02-14T07:51:55;9.23;;;5.20;;
80297;SDS011;69599;52.622;9.230;2024-02-14T07:54:21;8.90;;;5.55;;
80297;SDS011;69599;52.622;9.230;2024-02-14T07:56:46;7.70;;;4.95;;
80297;SDS011;69599;52.622;9.230;2024-02-14T07:59:12;11.18;;;5.30;;
80297;SDS011;69599;52.622;9.230;2024-02-14T08:01:37;9.65;;;5.35;;
80297;SDS011;69599;52.622;9.230;2024-02-14T08:04:02;9.02;;;5.40;;
80297;SDS011;69599;52.622;9.230;2024-02-14T08:06:29;8.48;;;5.22;;
80297;SDS011;69599;52.622;9.230;2024-02-14T08:08:54;9.15;;;5.38;;
80297;SDS011;69599;52.622;9.230;2024-02-14T08:13:50;7.53;;;4.90;;
80297;SDS011;69599;52.622;9.230;2024-02-14T08:16:16;8.35;;;5.05;;
80297;SDS011;69599;52.622;9.230;2024-02-14T08:18:42;7.40;;;4.45;;
80297;SDS011;69599;52.622;9.230;2024-02-14T08:21:09;8.23;;;4.35;;
80297;SDS011;69599;52.622;9.230;2024-02-14T08:23:35;9.48;;;4.93;;
80297;SDS011;69599;52.622;9.230;2024-02-14T08:26:01;9.00;;;4.57;;
80297;SDS011;69599;52.622;9.230;2024-02-14T08:28:26;8.55;;;4.78;;
80297;SDS011;69599;52.622;9.230;2024-02-14T08:30:52;7.47;;;4.82;;
80297;SDS011;69599;52.622;9.230;2024-02-14T08:33:17;8.23;;;5.20;;
80297;SDS011;69599;52.622;9.230;2024-02-14T08:35:43;9.30;;;5.13;;
80297;SDS011;69599;52.622;9.230;2024-02-14T08:38:08;10.65;;;5.78;;
80297;SDS011;69599;52.622;9.230;2024-02-14T08:40:34;9.13;;;5.38;;
80297;SDS011;69599;52.622;9.230;2024-02-14T08:42:59;10.20;;;6.00;;
80297;SDS011;69599;52.622;9.230;2024-02-14T08:45:25;9.82;;;6.20;;
80297;SDS011;69599;52.622;9.230;2024-02-14T08:47:54;12.02;;;6.18;;
80297;SDS011;69599;52.622;9.230;2024-02-14T08:50:19;10.25;;;6.25;;
80297;SDS011;69599;52.622;9.230;2024-02-14T08:52:45;11.73;;;6.50;;
80297;SDS011;69599;52.622;9.230;2024-02-14T08:55:10;11.35;;;7.10;;
80297;SDS011;69599;52.622;9.230;2024-02-14T08:57:41;13.10;;;7.38;;
80297;SDS011;69599;52.622;9.230;2024-02-14T09:00:07;14.82;;;8.30;;
80297;SDS011;69599;52.622;9.230;2024-02-14T09:02:33;16.85;;;9.75;;
80297;SDS011;69599;52.622;9.230;2024-02-14T09:05:00;15.80;;;8.93;;
80297;SDS011;69599;52.622;9.230;2024-02-14T09:07:26;19.17;;;9.50;;
80297;SDS011;69599;52.622;9.230;2024-02-14T09:09:52;17.23;;;9.45;;
80297;SDS011;69599;52.622;9.230;2024-02-14T09:12:17;17.95;;;9.80;;
80297;SDS011;69599;52.622;9.230;2024-02-14T09:14:42;18.67;;;10.40;;
80297;SDS011;69599;52.622;9.230;2024-02-14T09:17:08;19.27;;;10.70;;
80297;SDS011;69599;52.622;9.230;2024-02-14T09:19:34;16.45;;;9.98;;
80297;SDS011;69599;52.622;9.230;2024-02-14T09:22:00;20.33;;;11.10;;
80297;SDS011;69599;52.622;9.230;2024-02-14T09:24:25;20.55;;;11.10;;
80297;SDS011;69599;52.622;9.230;2024-02-14T09:26:51;22.52;;;10.60;;
80297;SDS011;69599;52.622;9.230;2024-02-14T09:29:16;23.02;;;11.30;;
80297;SDS011;69599;52.622;9.230;2024-02-14T09:31:42;20.92;;;11.88;;
80297;SDS011;69599;52.622;9.230;2024-02-14T09:34:07;19.88;;;11.23;;
80297;SDS011;69599;52.622;9.230;2024-02-14T09:36:33;22.70;;;12.60;;
80297;SDS011;69599;52.622;9.230;2024-02-14T09:38:58;22.73;;;12.45;;
80297;SDS011;69599;52.622;9.230;2024-02-14T09:41:25;20.63;;;11.70;;
80297;SDS011;69599;52.622;9.230;2024-02-14T09:43:55;23.75;;;12.27;;
80297;SDS011;69599;52.622;9.230;2024-02-14T09:46:21;22.60;;;12.07;;
80297;SDS011;69599;52.622;9.230;2024-02-14T09:48:50;23.63;;;12.70;;
80297;SDS011;69599;52.622;9.230;2024-02-14T09:51:17;22.08;;;12.80;;
80297;SDS011;69599;52.622;9.230;2024-02-14T09:53:43;22.50;;;11.77;;
80297;SDS011;69599;52.622;9.230;2024-02-14T09:56:09;23.58;;;12.60;;
80297;SDS011;69599;52.622;9.230;2024-02-14T09:58:36;21.50;;;12.15;;
80297;SDS011;69599;52.622;9.230;2024-02-14T10:01:02;22.33;;;12.27;;
80297;SDS011;69599;52.622;9.230;2024-02-14T10:03:27;21.48;;;11.73;;
80297;SDS011;69599;52.622;9.230;2024-02-14T10:05:53;21.98;;;11.80;;
80297;SDS011;69599;52.622;9.230;2024-02-14T10:08:18;20.38;;;12.15;;
80297;SDS011;69599;52.622;9.230;2024-02-14T10:10:45;24.80;;;14.50;;
80297;SDS011;69599;52.622;9.230;2024-02-14T10:13:11;22.13;;;12.52;;
80297;SDS011;69599;52.622;9.230;2024-02-14T10:15:37;20.38;;;12.20;;
80297;SDS011;69599;52.622;9.230;2024-02-14T10:18:02;21.63;;;12.32;;
80297;SDS011;69599;52.622;9.230;2024-02-14T10:20:28;22.98;;;13.18;;
80297;SDS011;69599;52.622;9.230;2024-02-14T10:23:01;22.17;;;12.77;;
80297;SDS011;69599;52.622;9.230;2024-02-14T10:25:30;24.00;;;12.70;;
80297;SDS011;69599;52.622;9.230;2024-02-14T10:28:02;24.08;;;12.63;;
80297;SDS011;69599;52.622;9.230;2024-02-14T10:30:29;21.65;;;12.50;;
80297;SDS011;69599;52.622;9.230;2024-02-14T10:32:54;20.15;;;12.13;;
80297;SDS011;69599;52.622;9.230;2024-02-14T10:35:19;23.85;;;12.73;;
80297;SDS011;69599;52.622;9.230;2024-02-14T10:37:45;21.63;;;12.40;;
80297;SDS011;69599;52.622;9.230;2024-02-14T10:40:13;23.77;;;12.52;;
80297;SDS011;69599;52.622;9.230;2024-02-14T10:42:38;20.02;;;11.63;;
80297;SDS011;69599;52.622;9.230;2024-02-14T10:45:04;22.98;;;13.13;;
80297;SDS011;69599;52.622;9.230;2024-02-14T10:47:31;22.75;;;13.10;;
80297;SDS011;69599;52.622;9.230;2024-02-14T10:50:00;23.00;;;12.60;;
80297;SDS011;69599;52.622;9.230;2024-02-14T10:52:31;19.20;;;11.38;;
80297;SDS011;69599;52.622;9.230;2024-02-14T10:54:58;21.02;;;12.27;;
80297;SDS011;69599;52.622;9.230;2024-02-14T10:57:28;20.52;;;10.95;;
80297;SDS011;69599;52.622;9.230;2024-02-14T10:59:54;18.20;;;11.57;;
80297;SDS011;69599;52.622;9.230;2024-02-14T11:02:20;19.60;;;10.90;;
80297;SDS011;69599;52.622;9.230;2024-02-14T11:04:46;18.20;;;10.75;;
80297;SDS011;69599;52.622;9.230;2024-02-14T11:07:11;18.25;;;10.50;;
80297;SDS011;69599;52.622;9.230;2024-02-14T11:09:38;17.45;;;10.13;;
80297;SDS011;69599;52.622;9.230;2024-02-14T11:12:07;16.05;;;10.52;;
80297;SDS011;69599;52.622;9.230;2024-02-14T11:14:36;16.63;;;10.30;;
80297;SDS011;69599;52.622;9.230;2024-02-14T11:17:04;13.90;;;9.57;;
80297;SDS011;69599;52.622;9.230;2024-02-14T11:19:38;15.73;;;10.02;;
80297;SDS011;69599;52.622;9.230;2024-02-14T11:22:12;13.98;;;8.90;;
80297;SDS011;69599;52.622;9.230;2024-02-14T11:24:38;13.77;;;8.77;;
80297;SDS011;69599;52.622;9.230;2024-02-14T11:27:03;13.18;;;8.82;;
80297;SDS011;69599;52.622;9.230;2024-02-14T11:29:34;14.50;;;8.95;;
80297;SDS011;69599;52.622;9.230;2024-02-14T11:32:00;14.50;;;8.45;;
80297;SDS011;69599;52.622;9.230;2024-02-14T11:34:27;15.00;;;9.43;;
80297;SDS011;69599;52.622;9.230;2024-02-14T11:36:53;14.85;;;8.43;;
80297;SDS011;69599;52.622;9.230;2024-02-14T11:39:20;13.75;;;8.75;;
80297;SDS011;69599;52.622;9.230;2024-02-14T11:41:47;12.70;;;8.23;;
80297;SDS011;69599;52.622;9.230;2024-02-14T11:44:12;15.57;;;8.77;;
80297;SDS011;69599;52.622;9.230;2024-02-14T11:46:38;15.30;;;8.95;;
80297;SDS011;69599;52.622;9.230;2024-02-14T11:49:04;14.23;;;8.85;;
80297;SDS011;69599;52.622;9.230;2024-02-14T11:51:31;12.82;;;8.27;;
80297;SDS011;69599;52.622;9.230;2024-02-14T11:53:58;13.95;;;8.80;;
80297;SDS011;69599;52.622;9.230;2024-02-14T11:56:36;14.90;;;8.95;;
80297;SDS011;69599;52.622;9.230;2024-02-14T11:59:03;15.57;;;9.55;;
80297;SDS011;69599;52.622;9.230;2024-02-14T12:01:38;13.60;;;8.73;;
80297;SDS011;69599;52.622;9.230;2024-02-14T12:04:07;13.82;;;8.98;;
80297;SDS011;69599;52.622;9.230;2024-02-14T12:06:36;13.55;;;9.05;;
80297;SDS011;69599;52.622;9.230;2024-02-14T12:09:06;16.95;;;9.90;;
80297;SDS011;69599;52.622;9.230;2024-02-14T12:11:34;12.55;;;8.27;;
80297;SDS011;69599;52.622;9.230;2024-02-14T12:14:06;13.77;;;9.00;;
80297;SDS011;69599;52.622;9.230;2024-02-14T12:16:35;13.15;;;8.07;;
80297;SDS011;69599;52.622;9.230;2024-02-14T12:19:05;13.10;;;8.18;;
80297;SDS011;69599;52.622;9.230;2024-02-14T12:21:36;13.07;;;8.07;;
80297;SDS011;69599;52.622;9.230;2024-02-14T12:26:29;13.45;;;8.23;;
80297;SDS011;69599;52.622;9.230;2024-02-14T12:28:56;15.40;;;8.18;;
80297;SDS011;69599;52.622;9.230;2024-02-14T12:31:24;12.57;;;8.07;;
80297;SDS011;69599;52.622;9.230;2024-02-14T12:33:50;14.05;;;8.57;;
80297;SDS011;69599;52.622;9.230;2024-02-14T12:38:44;14.77;;;8.30;;
80297;SDS011;69599;52.622;9.230;2024-02-14T12:41:10;13.55;;;8.52;;
80297;SDS011;69599;52.622;9.230;2024-02-14T12:43:35;12.70;;;8.57;;
80297;SDS011;69599;52.622;9.230;2024-02-14T12:46:01;15.32;;;9.13;;
80297;SDS011;69599;52.622;9.230;2024-02-14T12:48:26;15.05;;;9.13;;
80297;SDS011;69599;52.622;9.230;2024-02-14T12:50:53;14.25;;;8.93;;
80297;SDS011;69599;52.622;9.230;2024-02-14T12:53:18;14.65;;;9.32;;
80297;SDS011;69599;52.622;9.230;2024-02-14T12:55:46;14.75;;;9.57;;
80297;SDS011;69599;52.622;9.230;2024-02-14T12:58:12;22.25;;;12.85;;
80297;SDS011;69599;52.622;9.230;2024-02-14T13:00:37;17.38;;;10.63;;
80297;SDS011;69599;52.622;9.230;2024-02-14T13:03:03;14.70;;;9.75;;
80297;SDS011;69599;52.622;9.230;2024-02-14T13:05:29;26.92;;;15.95;;
80297;SDS011;69599;52.622;9.230;2024-02-14T13:07:55;16.90;;;11.15;;
80297;SDS011;69599;52.622;9.230;2024-02-14T13:10:20;14.50;;;9.75;;
80297;SDS011;69599;52.622;9.230;2024-02-14T13:12:47;16.65;;;10.73;;
80297;SDS011;69599;52.622;9.230;2024-02-14T13:15:12;16.33;;;9.95;;
80297;SDS011;69599;52.622;9.230;2024-02-14T13:17:38;15.20;;;10.00;;
80297;SDS011;69599;52.622;9.230;2024-02-14T13:20:03;15.77;;;10.07;;
80297;SDS011;69599;52.622;9.230;2024-02-14T13:22:29;17.35;;;11.07;;
80297;SDS011;69599;52.622;9.230;2024-02-14T13:24:55;18.35;;;11.90;;
80297;SDS011;69599;52.622;9.230;2024-02-14T13:27:25;19.42;;;17.42;;
80297;SDS011;69599;52.622;9.230;2024-02-14T13:29:51;16.35;;;11.13;;
80297;SDS011;69599;52.622;9.230;2024-02-14T13:32:16;15.07;;;10.65;;
80297;SDS011;69599;52.622;9.230;2024-02-14T13:34:42;15.73;;;10.43;;
80297;SDS011;69599;52.622;9.230;2024-02-14T13:37:10;17.10;;;10.82;;
80297;SDS011;69599;52.622;9.230;2024-02-14T13:39:36;15.55;;;10.23;;
80297;SDS011;69599;52.622;9.230;2024-02-14T13:42:01;13.38;;;8.95;;
80297;SDS011;69599;52.622;9.230;2024-02-14T13:44:27;14.80;;;10.07;;
80297;SDS011;69599;52.622;9.230;2024-02-14T13:46:53;15.07;;;9.50;;
80297;SDS011;69599;52.622;9.230;2024-02-14T13:52:40;13.85;;;8.40;;
80297;SDS011;69599;52.622;9.230;2024-02-14T13:55:05;14.68;;;8.95;;
80297;SDS011;69599;52.622;9.230;2024-02-14T13:57:36;14.55;;;8.80;;
80297;SDS011;69599;52.622;9.230;2024-02-14T14:00:06;14.10;;;9.25;;
80297;SDS011;69599;52.622;9.230;2024-02-14T14:02:36;13.75;;;8.52;;
80297;SDS011;69599;52.622;9.230;2024-02-14T14:05:06;15.77;;;10.52;;
80297;SDS011;69599;52.622;9.230;2024-02-14T14:07:34;9.90;;;6.97;;
80297;SDS011;69599;52.622;9.230;2024-02-14T14:10:08;12.38;;;7.47;;
80297;SDS011;69599;52.622;9.230;2024-02-14T14:12:34;8.35;;;6.40;;
80297;SDS011;69599;52.622;9.230;2024-02-14T14:15:00;10.65;;;7.25;;
80297;SDS011;69599;52.622;9.230;2024-02-14T14:17:25;10.55;;;7.03;;
80297;SDS011;69599;52.622;9.230;2024-02-14T14:36:40;7.30;;;5.47;;
80297;SDS011;69599;52.622;9.230;2024-02-14T14:39:06;8.55;;;5.82;;
80297;SDS011;69599;52.622;9.230;2024-02-14T14:41:31;8.10;;;5.68;;
80297;SDS011;69599;52.622;9.230;2024-02-14T14:43:57;7.53;;;5.72;;
80297;SDS011;69599;52.622;9.230;2024-02-14T14:46:22;8.75;;;5.57;;
80297;SDS011;69599;52.622;9.230;2024-02-14T14:48:48;9.18;;;5.88;;
80297;SDS011;69599;52.622;9.230;2024-02-14T14:51:15;11.20;;;5.57;;
80297;SDS011;69599;52.622;9.230;2024-02-14T14:53:40;9.40;;;5.93;;
80297;SDS011;69599;52.622;9.230;2024-02-14T14:56:06;8.27;;;6.22;;
80297;SDS011;69599;52.622;9.230;2024-02-14T14:58:31;8.35;;;5.40;;
80297;SDS011;69599;52.622;9.230;2024-02-14T15:00:59;7.63;;;5.50;;
80297;SDS011;69599;52.622;9.230;2024-02-14T15:03:25;8.73;;;6.10;;